sensor_id;sensor_type;location;lat;lon;timestamp;P1;durP1;ratioP1;P2;durP2;ratioP2
45548;SDS011;31270;48.328;10.096;2022-11-20T00:00:36;9.87;;;7.37;;
45548;SDS011;31270;48.328;10.096;2022-11-20T00:03:02;12.27;;;7.13;;
45548;SDS011;31270;48.328;10.096;2022-11-20T00:05:27;11.33;;;7.03;;
45548;SDS011;31270;48.328;10.096;2022-11-20T00:07:53;9.80;;;6.80;;
45548;SDS011;31270;48.328;10.096;2022-11-20T00:10:18;13.17;;;7.50;;
45548;SDS011;31270;48.328;10.096;2022-11-20T00:12:44;8.20;;;6.57;;
45548;SDS011;31270;48.328;10.096;2022-11-20T00:15:09;10.03;;;6.10;;
45548;SDS011;31270;48.328;10.096;2022-11-20T00:17:35;11.80;;;6.63;;
45548;SDS011;31270;48.328;10.096;2022-11-20T00:20:01;10.50;;;6.43;;
45548;SDS011;31270;48.328;10.096;2022-11-20T00:22:26;12.33;;;7.03;;
45548;SDS011;31270;48.328;10.096;2022-11-20T00:24:52;10.87;;;6.70;;
45548;SDS011;31270;48.328;10.096;2022-11-20T00:27:17;9.57;;;6.93;;
45548;SDS011;31270;48.328;10.096;2022-11-20T00:29:43;9.43;;;7.20;;
45548;SDS011;31270;48.328;10.096;2022-11-20T00:32:09;10.67;;;7.13;;
45548;SDS011;31270;48.328;10.096;2022-11-20T00:34:34;11.23;;;7.93;;
45548;SDS011;31270;48.328;10.096;2022-11-20T00:37:00;14.37;;;7.30;;
45548;SDS011;31270;48.328;10.096;2022-11-20T00:39:26;10.87;;;7.10;;
45548;SDS011;31270;48.328;10.096;2022-11-20T00:41:55;9.37;;;6.50;;
45548;SDS011;31270;48.328;10.096;2022-11-20T00:44:20;12.53;;;7.87;;
45548;SDS011;31270;48.328;10.096;2022-11-20T00:46:46;9.13;;;6.67;;
45548;SDS011;31270;48.328;10.096;2022-11-20T00:49:11;8.87;;;6.90;;
45548;SDS011;31270;48.328;10.096;2022-11-20T00:51:37;8.47;;;6.90;;
45548;SDS011;31270;48.328;10.096;2022-11-20T00:54:03;10.70;;;7.63;;
45548;SDS011;31270;48.328;10.096;2022-11-20T00:56:28;10.27;;;6.50;;
45548;SDS011;31270;48.328;10.096;2022-11-20T00:58:54;8.83;;;6.67;;
45548;SDS011;31270;48.328;10.096;2022-11-20T01:01:23;10.57;;;7.23;;
45548;SDS011;31270;48.328;10.096;2022-11-20T01:03:51;10.47;;;7.07;;
45548;SDS011;31270;48.328;10.096;2022-11-20T01:08:45;10.73;;;7.10;;
45548;SDS011;31270;48.328;10.096;2022-11-20T01:11:13;11.20;;;6.87;;
45548;SDS011;31270;48.328;10.096;2022-11-20T01:13:40;13.47;;;7.57;;
45548;SDS011;31270;48.328;10.096;2022-11-20T01:16:08;9.97;;;6.60;;
45548;SDS011;31270;48.328;10.096;2022-11-20T01:18:43;10.43;;;6.80;;
45548;SDS011;31270;48.328;10.096;2022-11-20T01:21:11;8.87;;;6.70;;
45548;SDS011;31270;48.328;10.096;2022-11-20T01:23:39;11.57;;;6.87;;
45548;SDS011;31270;48.328;10.096;2022-11-20T01:26:08;9.13;;;6.57;;
45548;SDS011;31270;48.328;10.096;2022-11-20T01:28:38;8.63;;;6.07;;
45548;SDS011;31270;48.328;10.096;2022-11-20T01:31:11;10.10;;;6.37;;
45548;SDS011;31270;48.328;10.096;2022-11-20T01:33:42;7.33;;;6.00;;
45548;SDS011;31270;48.328;10.096;2022-11-20T01:36:09;10.43;;;6.47;;
45548;SDS011;31270;48.328;10.096;2022-11-20T01:38:35;8.07;;;5.90;;
45548;SDS011;31270;48.328;10.096;2022-11-20T01:41:07;11.13;;;6.50;;
45548;SDS011;31270;48.328;10.096;2022-11-20T01:43:34;12.33;;;6.33;;
45548;SDS011;31270;48.328;10.096;2022-11-20T01:46:02;10.90;;;6.87;;
45548;SDS011;31270;48.328;10.096;2022-11-20T01:48:42;8.60;;;6.77;;
45548;SDS011;31270;48.328;10.096;2022-11-20T01:51:42;9.80;;;6.57;;
45548;SDS011;31270;48.328;10.096;2022-11-20T01:54:09;8.27;;;6.27;;
45548;SDS011;31270;48.328;10.096;2022-11-20T01:56:40;12.07;;;6.70;;
45548;SDS011;31270;48.328;10.096;2022-11-20T01:59:08;10.20;;;7.10;;
45548;SDS011;31270;48.328;10.096;2022-11-20T02:01:37;9.33;;;6.80;;
45548;SDS011;31270;48.328;10.096;2022-11-20T02:04:04;9.27;;;6.87;;
45548;SDS011;31270;48.328;10.096;2022-11-20T02:06:32;10.97;;;6.83;;
45548;SDS011;31270;48.328;10.096;2022-11-20T02:09:01;9.53;;;6.70;;
45548;SDS011;31270;48.328;10.096;2022-11-20T02:11:29;13.37;;;7.20;;
45548;SDS011;31270;48.328;10.096;2022-11-20T02:13:55;10.30;;;6.67;;
45548;SDS011;31270;48.328;10.096;2022-11-20T02:16:31;12.07;;;7.30;;
45548;SDS011;31270;48.328;10.096;2022-11-20T02:19:01;10.20;;;6.57;;
45548;SDS011;31270;48.328;10.096;2022-11-20T02:21:37;11.40;;;7.43;;
45548;SDS011;31270;48.328;10.096;2022-11-20T02:24:23;9.10;;;6.57;;
45548;SDS011;31270;48.328;10.096;2022-11-20T02:29:18;9.43;;;6.97;;
45548;SDS011;31270;48.328;10.096;2022-11-20T02:31:48;11.80;;;6.73;;
45548;SDS011;31270;48.328;10.096;2022-11-20T02:34:15;11.80;;;6.57;;
45548;SDS011;31270;48.328;10.096;2022-11-20T02:36:40;9.90;;;6.40;;
45548;SDS011;31270;48.328;10.096;2022-11-20T02:39:07;11.27;;;7.73;;
45548;SDS011;31270;48.328;10.096;2022-11-20T02:41:35;11.33;;;7.20;;
45548;SDS011;31270;48.328;10.096;2022-11-20T02:44:02;10.73;;;6.20;;
45548;SDS011;31270;48.328;10.096;2022-11-20T02:46:28;10.23;;;7.20;;
45548;SDS011;31270;48.328;10.096;2022-11-20T02:48:55;9.60;;;6.30;;
45548;SDS011;31270;48.328;10.096;2022-11-20T02:51:20;10.33;;;5.87;;
45548;SDS011;31270;48.328;10.096;2022-11-20T02:53:46;9.40;;;6.80;;
45548;SDS011;31270;48.328;10.096;2022-11-20T02:56:12;10.97;;;7.07;;
45548;SDS011;31270;48.328;10.096;2022-11-20T02:58:37;10.37;;;6.77;;
45548;SDS011;31270;48.328;10.096;2022-11-20T03:01:03;10.07;;;7.00;;
45548;SDS011;31270;48.328;10.096;2022-11-20T03:03:29;8.73;;;6.53;;
45548;SDS011;31270;48.328;10.096;2022-11-20T03:05:54;11.13;;;6.70;;
45548;SDS011;31270;48.328;10.096;2022-11-20T03:08:20;10.93;;;6.20;;
45548;SDS011;31270;48.328;10.096;2022-11-20T03:10:46;9.07;;;6.50;;
45548;SDS011;31270;48.328;10.096;2022-11-20T03:13:11;9.93;;;6.77;;
45548;SDS011;31270;48.328;10.096;2022-11-20T03:15:37;9.70;;;7.10;;
45548;SDS011;31270;48.328;10.096;2022-11-20T03:18:04;9.30;;;6.77;;
45548;SDS011;31270;48.328;10.096;2022-11-20T03:20:29;9.53;;;6.50;;
45548;SDS011;31270;48.328;10.096;2022-11-20T03:22:57;9.00;;;6.50;;
45548;SDS011;31270;48.328;10.096;2022-11-20T03:25:22;10.67;;;6.97;;
45548;SDS011;31270;48.328;10.096;2022-11-20T03:27:48;12.77;;;7.00;;
45548;SDS011;31270;48.328;10.096;2022-11-20T03:30:13;10.60;;;6.73;;
45548;SDS011;31270;48.328;10.096;2022-11-20T03:32:40;10.77;;;6.57;;
45548;SDS011;31270;48.328;10.096;2022-11-20T03:35:06;10.37;;;7.13;;
45548;SDS011;31270;48.328;10.096;2022-11-20T03:37:31;9.63;;;6.73;;
45548;SDS011;31270;48.328;10.096;2022-11-20T03:39:57;10.53;;;6.67;;
45548;SDS011;31270;48.328;10.096;2022-11-20T03:42:23;8.80;;;6.00;;
45548;SDS011;31270;48.328;10.096;2022-11-20T03:45:07;9.30;;;6.50;;
45548;SDS011;31270;48.328;10.096;2022-11-20T03:47:33;10.77;;;6.90;;
45548;SDS011;31270;48.328;10.096;2022-11-20T03:49:58;11.27;;;6.73;;
45548;SDS011;31270;48.328;10.096;2022-11-20T03:52:24;9.57;;;7.17;;
45548;SDS011;31270;48.328;10.096;2022-11-20T03:54:50;9.17;;;6.40;;
45548;SDS011;31270;48.328;10.096;2022-11-20T03:57:15;9.10;;;6.47;;
45548;SDS011;31270;48.328;10.096;2022-11-20T03:59:41;9.10;;;6.77;;
45548;SDS011;31270;48.328;10.096;2022-11-20T04:02:07;8.87;;;6.47;;
45548;SDS011;31270;48.328;10.096;2022-11-20T04:04:32;11.63;;;6.87;;
45548;SDS011;31270;48.328;10.096;2022-11-20T04:06:58;10.40;;;7.40;;
45548;SDS011;31270;48.328;10.096;2022-11-20T04:09:24;10.73;;;7.23;;
45548;SDS011;31270;48.328;10.096;2022-11-20T04:11:50;9.27;;;7.30;;
45548;SDS011;31270;48.328;10.096;2022-11-20T04:14:15;10.03;;;6.87;;
45548;SDS011;31270;48.328;10.096;2022-11-20T04:16:41;10.80;;;7.43;;
45548;SDS011;31270;48.328;10.096;2022-11-20T04:19:11;10.20;;;7.47;;
45548;SDS011;31270;48.328;10.096;2022-11-20T04:21:39;12.13;;;7.40;;
45548;SDS011;31270;48.328;10.096;2022-11-20T04:24:06;13.97;;;8.37;;
45548;SDS011;31270;48.328;10.096;2022-11-20T04:26:32;11.90;;;8.03;;
45548;SDS011;31270;48.328;10.096;2022-11-20T04:28:58;10.40;;;7.60;;
45548;SDS011;31270;48.328;10.096;2022-11-20T04:31:27;11.97;;;8.63;;
45548;SDS011;31270;48.328;10.096;2022-11-20T04:33:54;12.33;;;8.30;;
45548;SDS011;31270;48.328;10.096;2022-11-20T04:36:21;16.33;;;9.20;;
45548;SDS011;31270;48.328;10.096;2022-11-20T04:38:55;12.60;;;8.50;;
45548;SDS011;31270;48.328;10.096;2022-11-20T04:41:23;12.50;;;8.40;;
45548;SDS011;31270;48.328;10.096;2022-11-20T04:43:52;10.43;;;7.50;;
45548;SDS011;31270;48.328;10.096;2022-11-20T04:46:24;11.03;;;7.87;;
45548;SDS011;31270;48.328;10.096;2022-11-20T04:48:50;12.00;;;8.00;;
45548;SDS011;31270;48.328;10.096;2022-11-20T04:51:16;10.63;;;7.27;;
45548;SDS011;31270;48.328;10.096;2022-11-20T04:53:42;12.07;;;7.70;;
45548;SDS011;31270;48.328;10.096;2022-11-20T04:56:08;12.57;;;8.60;;
45548;SDS011;31270;48.328;10.096;2022-11-20T04:58:36;13.00;;;8.83;;
45548;SDS011;31270;48.328;10.096;2022-11-20T05:03:29;13.40;;;9.13;;
45548;SDS011;31270;48.328;10.096;2022-11-20T05:05:54;13.63;;;8.23;;
45548;SDS011;31270;48.328;10.096;2022-11-20T05:08:20;14.67;;;9.57;;
45548;SDS011;31270;48.328;10.096;2022-11-20T05:10:46;15.80;;;9.73;;
45548;SDS011;31270;48.328;10.096;2022-11-20T05:13:11;15.30;;;9.93;;
45548;SDS011;31270;48.328;10.096;2022-11-20T05:15:37;15.17;;;10.63;;
45548;SDS011;31270;48.328;10.096;2022-11-20T05:18:03;18.03;;;10.30;;
45548;SDS011;31270;48.328;10.096;2022-11-20T05:20:28;17.07;;;10.10;;
45548;SDS011;31270;48.328;10.096;2022-11-20T05:22:57;16.63;;;9.97;;
45548;SDS011;31270;48.328;10.096;2022-11-20T05:25:23;15.63;;;10.67;;
45548;SDS011;31270;48.328;10.096;2022-11-20T05:27:48;16.97;;;10.67;;
45548;SDS011;31270;48.328;10.096;2022-11-20T05:30:14;17.83;;;10.93;;
45548;SDS011;31270;48.328;10.096;2022-11-20T05:32:40;18.97;;;10.80;;
45548;SDS011;31270;48.328;10.096;2022-11-20T05:35:06;18.80;;;11.43;;
45548;SDS011;31270;48.328;10.096;2022-11-20T05:37:32;17.67;;;11.50;;
45548;SDS011;31270;48.328;10.096;2022-11-20T05:39:58;16.83;;;11.07;;
45548;SDS011;31270;48.328;10.096;2022-11-20T05:42:23;16.93;;;10.70;;
45548;SDS011;31270;48.328;10.096;2022-11-20T05:44:55;17.53;;;11.20;;
45548;SDS011;31270;48.328;10.096;2022-11-20T05:47:21;16.37;;;10.60;;
45548;SDS011;31270;48.328;10.096;2022-11-20T05:49:47;15.17;;;10.73;;
45548;SDS011;31270;48.328;10.096;2022-11-20T05:52:12;14.93;;;11.33;;
45548;SDS011;31270;48.328;10.096;2022-11-20T05:54:38;16.27;;;10.47;;
45548;SDS011;31270;48.328;10.096;2022-11-20T05:57:04;17.10;;;10.07;;
45548;SDS011;31270;48.328;10.096;2022-11-20T05:59:29;17.33;;;11.40;;
45548;SDS011;31270;48.328;10.096;2022-11-20T06:01:55;16.83;;;11.40;;
45548;SDS011;31270;48.328;10.096;2022-11-20T06:04:20;18.27;;;10.73;;
45548;SDS011;31270;48.328;10.096;2022-11-20T06:06:46;15.17;;;10.67;;
45548;SDS011;31270;48.328;10.096;2022-11-20T06:09:11;15.87;;;11.10;;
45548;SDS011;31270;48.328;10.096;2022-11-20T06:11:37;13.83;;;9.83;;
45548;SDS011;31270;48.328;10.096;2022-11-20T06:14:03;15.13;;;9.53;;
45548;SDS011;31270;48.328;10.096;2022-11-20T06:16:28;15.00;;;9.67;;
45548;SDS011;31270;48.328;10.096;2022-11-20T06:18:54;14.13;;;9.50;;
45548;SDS011;31270;48.328;10.096;2022-11-20T06:21:20;14.53;;;9.13;;
45548;SDS011;31270;48.328;10.096;2022-11-20T06:23:47;15.27;;;9.80;;
45548;SDS011;31270;48.328;10.096;2022-11-20T06:26:23;17.50;;;10.50;;
45548;SDS011;31270;48.328;10.096;2022-11-20T06:28:51;14.87;;;9.43;;
45548;SDS011;31270;48.328;10.096;2022-11-20T06:31:18;16.80;;;9.83;;
45548;SDS011;31270;48.328;10.096;2022-11-20T06:33:46;15.13;;;10.07;;
45548;SDS011;31270;48.328;10.096;2022-11-20T06:36:12;14.07;;;9.10;;
45548;SDS011;31270;48.328;10.096;2022-11-20T06:38:39;13.33;;;8.63;;
45548;SDS011;31270;48.328;10.096;2022-11-20T06:41:10;14.60;;;8.87;;
45548;SDS011;31270;48.328;10.096;2022-11-20T06:43:38;19.93;;;9.50;;
45548;SDS011;31270;48.328;10.096;2022-11-20T06:46:03;14.30;;;8.93;;
45548;SDS011;31270;48.328;10.096;2022-11-20T06:48:29;15.33;;;9.13;;
45548;SDS011;31270;48.328;10.096;2022-11-20T06:50:55;14.57;;;9.07;;
45548;SDS011;31270;48.328;10.096;2022-11-20T06:53:21;17.87;;;9.53;;
45548;SDS011;31270;48.328;10.096;2022-11-20T06:55:48;16.53;;;9.03;;
45548;SDS011;31270;48.328;10.096;2022-11-20T06:58:14;14.67;;;8.70;;
45548;SDS011;31270;48.328;10.096;2022-11-20T07:00:41;11.87;;;7.93;;
45548;SDS011;31270;48.328;10.096;2022-11-20T07:03:07;12.53;;;8.93;;
45548;SDS011;31270;48.328;10.096;2022-11-20T07:05:35;12.27;;;8.40;;
45548;SDS011;31270;48.328;10.096;2022-11-20T07:08:02;13.33;;;8.20;;
45548;SDS011;31270;48.328;10.096;2022-11-20T07:10:28;13.10;;;8.13;;
45548;SDS011;31270;48.328;10.096;2022-11-20T07:12:54;11.10;;;8.07;;
45548;SDS011;31270;48.328;10.096;2022-11-20T07:15:20;14.87;;;8.67;;
45548;SDS011;31270;48.328;10.096;2022-11-20T07:17:47;11.93;;;8.73;;
45548;SDS011;31270;48.328;10.096;2022-11-20T07:20:13;11.20;;;8.27;;
45548;SDS011;31270;48.328;10.096;2022-11-20T07:22:39;11.57;;;7.83;;
45548;SDS011;31270;48.328;10.096;2022-11-20T07:25:05;12.73;;;7.50;;
45548;SDS011;31270;48.328;10.096;2022-11-20T07:27:32;11.40;;;8.03;;
45548;SDS011;31270;48.328;10.096;2022-11-20T07:29:57;12.20;;;7.70;;
45548;SDS011;31270;48.328;10.096;2022-11-20T07:32:23;12.70;;;8.13;;
45548;SDS011;31270;48.328;10.096;2022-11-20T07:34:49;10.90;;;8.00;;
45548;SDS011;31270;48.328;10.096;2022-11-20T07:37:15;14.33;;;9.13;;
45548;SDS011;31270;48.328;10.096;2022-11-20T07:39:41;14.63;;;9.43;;
45548;SDS011;31270;48.328;10.096;2022-11-20T07:42:07;12.40;;;8.33;;
45548;SDS011;31270;48.328;10.096;2022-11-20T07:44:34;10.20;;;7.60;;
45548;SDS011;31270;48.328;10.096;2022-11-20T07:47:00;12.43;;;7.97;;
45548;SDS011;31270;48.328;10.096;2022-11-20T07:49:26;10.77;;;7.47;;
45548;SDS011;31270;48.328;10.096;2022-11-20T07:51:51;13.67;;;7.90;;
45548;SDS011;31270;48.328;10.096;2022-11-20T07:54:20;9.67;;;7.20;;
45548;SDS011;31270;48.328;10.096;2022-11-20T07:56:47;13.00;;;7.43;;
45548;SDS011;31270;48.328;10.096;2022-11-20T07:59:13;11.77;;;7.17;;
45548;SDS011;31270;48.328;10.096;2022-11-20T08:01:39;12.03;;;7.63;;
45548;SDS011;31270;48.328;10.096;2022-11-20T08:04:05;12.23;;;7.77;;
45548;SDS011;31270;48.328;10.096;2022-11-20T08:06:31;9.40;;;6.57;;
45548;SDS011;31270;48.328;10.096;2022-11-20T08:08:57;12.30;;;7.47;;
45548;SDS011;31270;48.328;10.096;2022-11-20T08:11:23;11.10;;;7.00;;
45548;SDS011;31270;48.328;10.096;2022-11-20T08:14:07;12.20;;;7.40;;
45548;SDS011;31270;48.328;10.096;2022-11-20T08:16:44;9.77;;;6.77;;
45548;SDS011;31270;48.328;10.096;2022-11-20T08:19:14;11.40;;;7.43;;
45548;SDS011;31270;48.328;10.096;2022-11-20T08:21:41;11.50;;;7.23;;
45548;SDS011;31270;48.328;10.096;2022-11-20T08:24:08;8.83;;;6.53;;
45548;SDS011;31270;48.328;10.096;2022-11-20T08:26:35;10.37;;;6.80;;
45548;SDS011;31270;48.328;10.096;2022-11-20T08:29:02;10.93;;;7.50;;
45548;SDS011;31270;48.328;10.096;2022-11-20T08:31:28;9.93;;;6.70;;
45548;SDS011;31270;48.328;10.096;2022-11-20T08:33:54;9.00;;;7.20;;
45548;SDS011;31270;48.328;10.096;2022-11-20T08:36:20;10.83;;;6.77;;
45548;SDS011;31270;48.328;10.096;2022-11-20T08:38:48;9.90;;;6.90;;
45548;SDS011;31270;48.328;10.096;2022-11-20T08:41:14;9.20;;;6.23;;
45548;SDS011;31270;48.328;10.096;2022-11-20T08:43:56;11.43;;;6.97;;
45548;SDS011;31270;48.328;10.096;2022-11-20T08:46:27;9.60;;;6.97;;
45548;SDS011;31270;48.328;10.096;2022-11-20T08:48:58;10.20;;;7.00;;
45548;SDS011;31270;48.328;10.096;2022-11-20T08:51:24;9.30;;;6.70;;
45548;SDS011;31270;48.328;10.096;2022-11-20T08:53:50;12.77;;;7.53;;
45548;SDS011;31270;48.328;10.096;2022-11-20T08:56:16;10.30;;;7.20;;
45548;SDS011;31270;48.328;10.096;2022-11-20T08:58:42;10.70;;;7.00;;
45548;SDS011;31270;48.328;10.096;2022-11-20T09:01:08;10.47;;;6.63;;
45548;SDS011;31270;48.328;10.096;2022-11-20T09:03:34;10.07;;;6.83;;
45548;SDS011;31270;48.328;10.096;2022-11-20T09:06:01;10.57;;;6.70;;
45548;SDS011;31270;48.328;10.096;2022-11-20T09:08:31;9.90;;;7.17;;
45548;SDS011;31270;48.328;10.096;2022-11-20T09:10:58;9.37;;;6.73;;
45548;SDS011;31270;48.328;10.096;2022-11-20T09:13:25;8.90;;;6.07;;
45548;SDS011;31270;48.328;10.096;2022-11-20T09:18:21;6.47;;;5.20;;
45548;SDS011;31270;48.328;10.096;2022-11-20T09:20:47;7.83;;;5.10;;
45548;SDS011;31270;48.328;10.096;2022-11-20T09:23:13;7.80;;;5.00;;
45548;SDS011;31270;48.328;10.096;2022-11-20T09:25:39;5.77;;;4.80;;
45548;SDS011;31270;48.328;10.096;2022-11-20T09:28:05;6.73;;;4.43;;
45548;SDS011;31270;48.328;10.096;2022-11-20T09:30:30;5.47;;;4.40;;
45548;SDS011;31270;48.328;10.096;2022-11-20T09:32:56;6.30;;;4.57;;
45548;SDS011;31270;48.328;10.096;2022-11-20T09:35:23;5.00;;;4.17;;
45548;SDS011;31270;48.328;10.096;2022-11-20T09:37:48;5.17;;;4.20;;
45548;SDS011;31270;48.328;10.096;2022-11-20T09:40:21;5.37;;;4.17;;
45548;SDS011;31270;48.328;10.096;2022-11-20T09:45:35;5.20;;;4.03;;
45548;SDS011;31270;48.328;10.096;2022-11-20T09:48:55;5.10;;;3.77;;
45548;SDS011;31270;48.328;10.096;2022-11-20T09:56:15;6.37;;;4.00;;
45548;SDS011;31270;48.328;10.096;2022-11-20T09:58:50;7.73;;;4.67;;
45548;SDS011;31270;48.328;10.096;2022-11-20T10:01:19;5.03;;;3.60;;
45548;SDS011;31270;48.328;10.096;2022-11-20T10:03:53;5.77;;;4.17;;
45548;SDS011;31270;48.328;10.096;2022-11-20T10:10:02;5.53;;;4.63;;
45548;SDS011;31270;48.328;10.096;2022-11-20T10:15:33;6.17;;;4.50;;
45548;SDS011;31270;48.328;10.096;2022-11-20T10:20:56;5.60;;;4.67;;
45548;SDS011;31270;48.328;10.096;2022-11-20T10:26:32;4.70;;;3.40;;
45548;SDS011;31270;48.328;10.096;2022-11-20T10:29:22;4.37;;;3.40;;
45548;SDS011;31270;48.328;10.096;2022-11-20T10:31:59;4.70;;;3.40;;
45548;SDS011;31270;48.328;10.096;2022-11-20T10:37:23;3.37;;;3.07;;
45548;SDS011;31270;48.328;10.096;2022-11-20T10:42:48;3.87;;;3.07;;
45548;SDS011;31270;48.328;10.096;2022-11-20T10:47:56;4.63;;;2.90;;
45548;SDS011;31270;48.328;10.096;2022-11-20T10:50:23;2.90;;;2.47;;
45548;SDS011;31270;48.328;10.096;2022-11-20T10:55:50;3.77;;;3.17;;
45548;SDS011;31270;48.328;10.096;2022-11-20T10:58:29;4.17;;;2.93;;
45548;SDS011;31270;48.328;10.096;2022-11-20T11:01:21;3.23;;;2.80;;
45548;SDS011;31270;48.328;10.096;2022-11-20T11:03:48;3.63;;;2.70;;
45548;SDS011;31270;48.328;10.096;2022-11-20T11:08:50;6.20;;;4.90;;
45548;SDS011;31270;48.328;10.096;2022-11-20T11:11:22;6.07;;;4.60;;
45548;SDS011;31270;48.328;10.096;2022-11-20T11:13:50;7.73;;;4.50;;
45548;SDS011;31270;48.328;10.096;2022-11-20T11:16:19;4.17;;;3.40;;
45548;SDS011;31270;48.328;10.096;2022-11-20T11:18:50;3.87;;;3.17;;
45548;SDS011;31270;48.328;10.096;2022-11-20T11:21:22;3.50;;;2.83;;
45548;SDS011;31270;48.328;10.096;2022-11-20T11:23:57;4.17;;;3.43;;
45548;SDS011;31270;48.328;10.096;2022-11-20T11:26:28;3.77;;;3.00;;
45548;SDS011;31270;48.328;10.096;2022-11-20T11:29:01;3.33;;;3.00;;
45548;SDS011;31270;48.328;10.096;2022-11-20T11:31:30;3.10;;;2.80;;
45548;SDS011;31270;48.328;10.096;2022-11-20T11:34:07;4.00;;;3.03;;
45548;SDS011;31270;48.328;10.096;2022-11-20T11:36:37;3.83;;;3.30;;
45548;SDS011;31270;48.328;10.096;2022-11-20T11:39:04;3.33;;;3.03;;
45548;SDS011;31270;48.328;10.096;2022-11-20T11:41:35;3.73;;;2.90;;
45548;SDS011;31270;48.328;10.096;2022-11-20T11:47:23;4.30;;;3.73;;
45548;SDS011;31270;48.328;10.096;2022-11-20T11:52:53;4.97;;;3.80;;
45548;SDS011;31270;48.328;10.096;2022-11-20T11:58:20;5.47;;;4.10;;
45548;SDS011;31270;48.328;10.096;2022-11-20T12:01:24;5.37;;;3.33;;
45548;SDS011;31270;48.328;10.096;2022-11-20T12:04:17;5.13;;;3.57;;
45548;SDS011;31270;48.328;10.096;2022-11-20T12:07:04;4.07;;;3.23;;
45548;SDS011;31270;48.328;10.096;2022-11-20T12:09:56;4.33;;;3.70;;
45548;SDS011;31270;48.328;10.096;2022-11-20T12:12:24;11.93;;;2.83;;
45548;SDS011;31270;48.328;10.096;2022-11-20T12:14:56;3.53;;;3.17;;
45548;SDS011;31270;48.328;10.096;2022-11-20T12:17:23;5.30;;;4.00;;
45548;SDS011;31270;48.328;10.096;2022-11-20T12:19:49;4.07;;;3.67;;
45548;SDS011;31270;48.328;10.096;2022-11-20T12:27:36;5.47;;;3.40;;
45548;SDS011;31270;48.328;10.096;2022-11-20T12:30:24;5.00;;;4.33;;
45548;SDS011;31270;48.328;10.096;2022-11-20T12:38:43;4.80;;;3.90;;
45548;SDS011;31270;48.328;10.096;2022-11-20T12:47:44;6.50;;;3.40;;
45548;SDS011;31270;48.328;10.096;2022-11-20T12:58:12;6.70;;;3.77;;
45548;SDS011;31270;48.328;10.096;2022-11-20T13:01:09;3.93;;;3.20;;
45548;SDS011;31270;48.328;10.096;2022-11-20T13:03:57;4.57;;;3.50;;
45548;SDS011;31270;48.328;10.096;2022-11-20T13:06:32;4.03;;;3.37;;
45548;SDS011;31270;48.328;10.096;2022-11-20T13:09:19;3.10;;;2.50;;
45548;SDS011;31270;48.328;10.096;2022-11-20T13:19:47;3.27;;;2.87;;
45548;SDS011;31270;48.328;10.096;2022-11-20T13:22:28;4.50;;;2.70;;
45548;SDS011;31270;48.328;10.096;2022-11-20T13:27:54;3.30;;;2.77;;
45548;SDS011;31270;48.328;10.096;2022-11-20T13:30:22;2.40;;;2.20;;
45548;SDS011;31270;48.328;10.096;2022-11-20T13:32:50;2.87;;;2.40;;
45548;SDS011;31270;48.328;10.096;2022-11-20T13:35:25;2.80;;;2.50;;
45548;SDS011;31270;48.328;10.096;2022-11-20T13:38:09;2.90;;;2.47;;
45548;SDS011;31270;48.328;10.096;2022-11-20T13:41:22;3.60;;;2.20;;
45548;SDS011;31270;48.328;10.096;2022-11-20T13:43:48;4.83;;;2.50;;
45548;SDS011;31270;48.328;10.096;2022-11-20T13:46:14;2.80;;;2.57;;
45548;SDS011;31270;48.328;10.096;2022-11-20T13:48:41;2.83;;;2.33;;
45548;SDS011;31270;48.328;10.096;2022-11-20T13:51:25;3.70;;;2.27;;
45548;SDS011;31270;48.328;10.096;2022-11-20T13:54:01;3.73;;;2.20;;
45548;SDS011;31270;48.328;10.096;2022-11-20T14:02:26;4.27;;;2.40;;
45548;SDS011;31270;48.328;10.096;2022-11-20T14:04:56;2.77;;;2.20;;
45548;SDS011;31270;48.328;10.096;2022-11-20T14:07:25;2.60;;;2.40;;
45548;SDS011;31270;48.328;10.096;2022-11-20T14:10:02;4.17;;;2.57;;
45548;SDS011;31270;48.328;10.096;2022-11-20T14:12:30;2.53;;;2.33;;
45548;SDS011;31270;48.328;10.096;2022-11-20T14:14:58;2.63;;;2.30;;
45548;SDS011;31270;48.328;10.096;2022-11-20T14:20:04;4.00;;;2.47;;
45548;SDS011;31270;48.328;10.096;2022-11-20T14:22:32;3.30;;;2.57;;
45548;SDS011;31270;48.328;10.096;2022-11-20T14:27:38;4.40;;;3.50;;
45548;SDS011;31270;48.328;10.096;2022-11-20T14:30:13;4.33;;;3.87;;
45548;SDS011;31270;48.328;10.096;2022-11-20T14:32:43;3.50;;;2.93;;
45548;SDS011;31270;48.328;10.096;2022-11-20T14:35:30;3.10;;;2.70;;
45548;SDS011;31270;48.328;10.096;2022-11-20T14:38:01;6.17;;;2.93;;
45548;SDS011;31270;48.328;10.096;2022-11-20T14:40:34;4.63;;;2.80;;
45548;SDS011;31270;48.328;10.096;2022-11-20T14:43:02;2.97;;;2.30;;
45548;SDS011;31270;48.328;10.096;2022-11-20T14:48:45;3.30;;;2.63;;
45548;SDS011;31270;48.328;10.096;2022-11-20T14:57:00;3.67;;;2.90;;
45548;SDS011;31270;48.328;10.096;2022-11-20T14:59:32;3.80;;;3.07;;
45548;SDS011;31270;48.328;10.096;2022-11-20T15:02:01;3.97;;;2.57;;
45548;SDS011;31270;48.328;10.096;2022-11-20T15:04:31;2.70;;;2.43;;
45548;SDS011;31270;48.328;10.096;2022-11-20T15:06:58;4.47;;;2.50;;
45548;SDS011;31270;48.328;10.096;2022-11-20T15:09:24;2.50;;;2.10;;
45548;SDS011;31270;48.328;10.096;2022-11-20T15:11:57;2.97;;;2.57;;
45548;SDS011;31270;48.328;10.096;2022-11-20T15:14:25;3.87;;;2.40;;
45548;SDS011;31270;48.328;10.096;2022-11-20T15:16:53;3.23;;;2.40;;
45548;SDS011;31270;48.328;10.096;2022-11-20T15:19:20;2.87;;;2.30;;
45548;SDS011;31270;48.328;10.096;2022-11-20T15:21:48;4.07;;;2.20;;
45548;SDS011;31270;48.328;10.096;2022-11-20T15:24:14;3.27;;;2.90;;
45548;SDS011;31270;48.328;10.096;2022-11-20T15:26:40;3.40;;;2.50;;
45548;SDS011;31270;48.328;10.096;2022-11-20T15:29:10;3.40;;;2.60;;
45548;SDS011;31270;48.328;10.096;2022-11-20T15:31:38;5.97;;;4.27;;
45548;SDS011;31270;48.328;10.096;2022-11-20T15:34:11;3.30;;;3.00;;
45548;SDS011;31270;48.328;10.096;2022-11-20T15:36:38;2.40;;;2.20;;
45548;SDS011;31270;48.328;10.096;2022-11-20T15:39:04;2.60;;;2.30;;
45548;SDS011;31270;48.328;10.096;2022-11-20T15:41:32;2.93;;;2.60;;
45548;SDS011;31270;48.328;10.096;2022-11-20T15:43:59;3.30;;;2.60;;
45548;SDS011;31270;48.328;10.096;2022-11-20T15:46:28;27.23;;;13.90;;
45548;SDS011;31270;48.328;10.096;2022-11-20T15:48:58;6.00;;;3.70;;
45548;SDS011;31270;48.328;10.096;2022-11-20T15:51:38;2.23;;;2.03;;
45548;SDS011;31270;48.328;10.096;2022-11-20T15:54:13;5.63;;;3.37;;
45548;SDS011;31270;48.328;10.096;2022-11-20T15:56:41;2.57;;;2.37;;
45548;SDS011;31270;48.328;10.096;2022-11-20T15:59:06;2.37;;;2.17;;
45548;SDS011;31270;48.328;10.096;2022-11-20T16:01:32;2.50;;;2.13;;
45548;SDS011;31270;48.328;10.096;2022-11-20T16:03:58;2.77;;;2.40;;
45548;SDS011;31270;48.328;10.096;2022-11-20T16:06:30;3.70;;;2.40;;
45548;SDS011;31270;48.328;10.096;2022-11-20T16:08:57;3.23;;;2.10;;
45548;SDS011;31270;48.328;10.096;2022-11-20T16:11:23;4.83;;;2.30;;
45548;SDS011;31270;48.328;10.096;2022-11-20T16:13:49;3.30;;;2.53;;
45548;SDS011;31270;48.328;10.096;2022-11-20T16:16:37;6.40;;;3.93;;
45548;SDS011;31270;48.328;10.096;2022-11-20T16:19:05;6.33;;;4.57;;
45548;SDS011;31270;48.328;10.096;2022-11-20T16:21:34;4.50;;;3.03;;
45548;SDS011;31270;48.328;10.096;2022-11-20T16:24:03;4.57;;;3.07;;
45548;SDS011;31270;48.328;10.096;2022-11-20T16:26:41;9.60;;;3.30;;
45548;SDS011;31270;48.328;10.096;2022-11-20T16:29:19;7.47;;;3.47;;